Thomson, GA

11:36 PM EST del 02 Dicembre 2016 (GMT -0500)
Thomson-McDuffie County | | Change Station

Alt. 499 ft 33.53 °N, 82.52 °W | Updated 21 minutes ago

Clear
Sereno
48 °F
Sembra 48 °F
N
0
Vento Variabile Vento da Nord

Oggi
Massima -- | Minima -- °F
--% Possibilità di precip.
Ieri
Massima -- | Minima -- °F
Precip. -- in
Pressione 30.27 in
Visibilità 10.0 miglia
Nuvole Sereno
Punto di rugiada 37 °F
Umidità 66%
Piovosità 0.00 in
Spessore del manto nevoso Non disponibile.
7:17 AM 5:21 PM
Luna crescente, 12% visible
METAR KHQU 030415Z AUTO 00000KT 10SM CLR 09/03 A3027 RMK AO1 T00870027
Pressione 30.27 in
Visibilità 10.0 miglia
Nuvole Sereno
Punto di rugiada 37 °F
Umidità 66%
Piovosità 0.00 in
Spessore del manto nevoso Non disponibile.
7:17 AM 5:21 PM
Luna crescente, 12% visible
METAR KHQU 030415Z AUTO 00000KT 10SM CLR 09/03 A3027 RMK AO1 T00870027

10-Day Weather Forecast

Almanac

Astronomia

Dec. 02, 2016 Alba Tramonto
Ora attuale
Crepuscolo civile
Crepuscolo nautico
Crepuscolo astronomico
Luna
Estensione della luce visibile
Lunghezza del giorno
Tomorrow will be .
, % of the Moon is Illuminated

Gli estremi di oggi

State Highs State Lows

Community

WunderPhotos

Upload Photos

1,955,411 foto caricate!

WunderBlog® & News

Nearby

Qualità dell'aria

  Qualità dell'aria Indice AQ Inquinante
Not available.

Profondità neve

Stazione Profondità Altitudine

Attività sismica

Città  Distanza Mag. Data & Ora
Minimo Magnitudo Mostrato è 2.5.

Temperature delle acque costiere

Località Temperatura

Stations

Stazioni meteo nelle vicinanze

Ubicazione della stazione Temp. Raffreddamento del vento Punto di rugiada Umidità Vento Precip. Alt. Aggiornato Tipo
                   

Watches & Warnings

There are currently no watches in effect.